createdAt,value
2022-11-22T00:08:58.145Z,951.21
2022-11-22T00:18:58.273Z,951.11
2022-11-22T00:28:58.430Z,951.03
2022-11-22T00:38:58.694Z,950.96
2022-11-22T00:48:58.882Z,950.88
2022-11-22T00:58:59.110Z,951.08
2022-11-22T01:08:59.285Z,951.30
2022-11-22T01:18:59.524Z,951.32
2022-11-22T01:28:59.684Z,951.52
2022-11-22T01:38:59.939Z,951.52
2022-11-22T01:49:00.130Z,951.57
2022-11-22T01:59:00.282Z,951.58
2022-11-22T02:09:00.465Z,951.53
2022-11-22T02:19:00.708Z,951.64
2022-11-22T02:29:00.887Z,951.77
2022-11-22T02:39:01.145Z,951.92
2022-11-22T02:49:01.331Z,951.82
2022-11-22T02:59:01.583Z,951.85
2022-11-22T03:09:01.767Z,951.90
2022-11-22T03:19:02.019Z,951.93
2022-11-22T03:29:02.501Z,951.98
2022-11-22T03:39:02.405Z,952.07
2022-11-22T03:49:02.576Z,952.18
2022-11-22T03:59:03.057Z,952.12
2022-11-22T04:09:03.013Z,951.99
2022-11-22T04:19:03.089Z,952.14
2022-11-22T04:29:09.628Z,952.15
2022-11-22T04:39:04.379Z,952.17
2022-11-22T04:49:03.572Z,952.24
2022-11-22T04:59:03.705Z,952.39
2022-11-22T05:09:03.907Z,952.38
2022-11-22T05:19:04.184Z,952.53
2022-11-22T05:29:04.257Z,952.61
2022-11-22T05:39:04.525Z,952.67
2022-11-22T05:49:04.720Z,952.58
2022-11-22T05:59:05.169Z,952.71
2022-11-22T06:09:05.019Z,952.93
2022-11-22T06:19:05.271Z,952.89
2022-11-22T06:29:05.466Z,953.09
2022-11-22T06:39:05.732Z,953.27
2022-11-22T06:49:05.806Z,953.40
2022-11-22T06:59:06.052Z,953.74
2022-11-22T07:09:06.205Z,953.85
2022-11-22T07:19:06.487Z,953.88
2022-11-22T07:29:06.686Z,954.11
2022-11-22T07:39:06.909Z,954.11
2022-11-22T07:49:07.284Z,954.30
2022-11-22T07:59:07.388Z,954.35
2022-11-22T08:09:07.531Z,954.32
2022-11-22T08:19:07.741Z,954.35
2022-11-22T08:29:13.694Z,954.29
2022-11-22T08:39:09.399Z,954.24
2022-11-22T08:49:08.343Z,954.03
2022-11-22T08:59:08.495Z,954.05
2022-11-22T09:09:35.788Z,954.24
2022-11-22T09:19:09.896Z,954.30
2022-11-22T09:29:08.827Z,954.43
2022-11-22T09:39:09.175Z,954.52
2022-11-22T09:49:09.221Z,954.68
2022-11-22T09:59:09.770Z,954.66
2022-11-22T10:09:09.611Z,954.88
2022-11-22T10:19:09.939Z,954.99
